Flugplatz Hettstadt

Für EDGH sind keine METAR/TAF Berichte vorhanden.
Es werden die Flugwettermeldungen vom Flugplatz Niederstetten Airport in 46 km Entfernung angezeigt.

Bericht für ETHN

vom 15.07. um 18:20 UTC

Wind 8 kt aus 310°

Sichtweite 10 km oder mehr

gering bewölkt in 3000 ft

Temperatur 18.0°C

Taupunkt 10.0°C

Luftfeuchtigkeit 59%

Luftdruck 1015 hPa

ETHN 151820Z 31008KT 9999 FEW030 18/10 Q1015 BLU+BLU+

Prognose für ETHN

vom 15.07. um 16:19 UTC

Zwischen 17:00 UTC und 02:00 UTC

Wind 10 kt aus 280°

Sichtweite 10 km oder mehr

keine signifikanten Wettererscheinungen

aufgelockert bewölkt in 1000 ft

aufgebrochene Bewölkung in 6000 ft


Zwischen 17:00 UTC und 18:00 UTC zeitweise

Wind 10 kt aus 270° in Böen 20 kt

Sichtweite 8000 m

schwacher Regenschauer

aufgebrochene Bewölkung in 1000 ft

TAF ETHN 151619Z 1517/1602 28010KT 9999 NSW SCT010 BKN060 TEMPO 1517/1518 27010G20KT 8000 -SHRA BKN010TCU
Impressum